sensor_id;sensor_type;location;lat;lon;timestamp;pressure;altitude;pressure_sealevel;temperature
13570;BMP180;6856;51.460;7.158;2024-02-26T00:01:35;98728.00;;;10.10
13570;BMP180;6856;51.460;7.158;2024-02-26T00:04:08;98698.00;;;10.10
13570;BMP180;6856;51.460;7.158;2024-02-26T00:06:46;98711.00;;;10.10
13570;BMP180;6856;51.460;7.158;2024-02-26T00:09:20;98719.00;;;10.10
13570;BMP180;6856;51.460;7.158;2024-02-26T00:11:54;98717.00;;;10.20
13570;BMP180;6856;51.460;7.158;2024-02-26T00:14:28;98673.00;;;10.20
13570;BMP180;6856;51.460;7.158;2024-02-26T00:17:03;98725.00;;;10.20
13570;BMP180;6856;51.460;7.158;2024-02-26T00:19:37;98725.00;;;10.20
13570;BMP180;6856;51.460;7.158;2024-02-26T00:22:11;98738.00;;;10.20
13570;BMP180;6856;51.460;7.158;2024-02-26T00:24:45;98724.00;;;10.20
13570;BMP180;6856;51.460;7.158;2024-02-26T00:27:19;98727.00;;;10.20
13570;BMP180;6856;51.460;7.158;2024-02-26T00:29:54;98726.00;;;10.20
13570;BMP180;6856;51.460;7.158;2024-02-26T00:32:28;98719.00;;;10.20
13570;BMP180;6856;51.460;7.158;2024-02-26T00:35:02;98717.00;;;10.20
13570;BMP180;6856;51.460;7.158;2024-02-26T00:37:38;98725.00;;;10.20
13570;BMP180;6856;51.460;7.158;2024-02-26T00:40:14;98721.00;;;10.20
13570;BMP180;6856;51.460;7.158;2024-02-26T00:42:47;98721.00;;;10.10
13570;BMP180;6856;51.460;7.158;2024-02-26T00:45:22;98712.00;;;10.10
13570;BMP180;6856;51.460;7.158;2024-02-26T00:47:56;98724.00;;;10.10
13570;BMP180;6856;51.460;7.158;2024-02-26T00:50:32;98718.00;;;10.10
13570;BMP180;6856;51.460;7.158;2024-02-26T00:53:08;98713.00;;;10.00
13570;BMP180;6856;51.460;7.158;2024-02-26T00:55:41;98715.00;;;10.10
13570;BMP180;6856;51.460;7.158;2024-02-26T00:58:16;98708.00;;;10.10
13570;BMP180;6856;51.460;7.158;2024-02-26T01:00:53;98681.00;;;10.10
13570;BMP180;6856;51.460;7.158;2024-02-26T01:03:27;98708.00;;;10.10
13570;BMP180;6856;51.460;7.158;2024-02-26T01:06:02;98702.00;;;10.10
13570;BMP180;6856;51.460;7.158;2024-02-26T01:08:37;98695.00;;;10.10
13570;BMP180;6856;51.460;7.158;2024-02-26T01:11:12;98704.00;;;10.10
13570;BMP180;6856;51.460;7.158;2024-02-26T01:13:46;98709.00;;;10.10
13570;BMP180;6856;51.460;7.158;2024-02-26T01:16:20;98689.00;;;10.00
13570;BMP180;6856;51.460;7.158;2024-02-26T01:18:56;98694.00;;;10.00
13570;BMP180;6856;51.460;7.158;2024-02-26T01:21:30;98707.00;;;10.00
13570;BMP180;6856;51.460;7.158;2024-02-26T01:24:08;98711.00;;;10.00
13570;BMP180;6856;51.460;7.158;2024-02-26T01:26:42;98705.00;;;10.00
13570;BMP180;6856;51.460;7.158;2024-02-26T01:29:16;98715.00;;;10.00
13570;BMP180;6856;51.460;7.158;2024-02-26T01:31:49;98718.00;;;10.00
13570;BMP180;6856;51.460;7.158;2024-02-26T01:34:25;98713.00;;;10.00
13570;BMP180;6856;51.460;7.158;2024-02-26T01:37:00;98712.00;;;10.00
13570;BMP180;6856;51.460;7.158;2024-02-26T01:39:37;98711.00;;;10.00
13570;BMP180;6856;51.460;7.158;2024-02-26T01:42:12;98709.00;;;10.00
13570;BMP180;6856;51.460;7.158;2024-02-26T01:44:46;98710.00;;;10.00
13570;BMP180;6856;51.460;7.158;2024-02-26T01:47:20;98712.00;;;10.00
13570;BMP180;6856;51.460;7.158;2024-02-26T01:49:54;98706.00;;;10.00
13570;BMP180;6856;51.460;7.158;2024-02-26T01:52:28;98712.00;;;10.00
13570;BMP180;6856;51.460;7.158;2024-02-26T01:55:04;98709.00;;;10.00
13570;BMP180;6856;51.460;7.158;2024-02-26T01:57:41;98706.00;;;10.00
13570;BMP180;6856;51.460;7.158;2024-02-26T02:00:18;98713.00;;;10.00
13570;BMP180;6856;51.460;7.158;2024-02-26T02:02:55;98711.00;;;10.00
13570;BMP180;6856;51.460;7.158;2024-02-26T02:05:30;98709.00;;;10.00
13570;BMP180;6856;51.460;7.158;2024-02-26T02:08:05;98712.00;;;10.00
13570;BMP180;6856;51.460;7.158;2024-02-26T02:10:42;98712.00;;;10.00
13570;BMP180;6856;51.460;7.158;2024-02-26T02:13:16;98721.00;;;10.00
13570;BMP180;6856;51.460;7.158;2024-02-26T02:15:51;98714.00;;;10.00
13570;BMP180;6856;51.460;7.158;2024-02-26T02:18:25;98718.00;;;10.00
13570;BMP180;6856;51.460;7.158;2024-02-26T02:21:02;98726.00;;;9.90
13570;BMP180;6856;51.460;7.158;2024-02-26T02:23:36;98721.00;;;9.90
13570;BMP180;6856;51.460;7.158;2024-02-26T02:26:10;98722.00;;;9.90
13570;BMP180;6856;51.460;7.158;2024-02-26T02:28:45;98716.00;;;9.90
13570;BMP180;6856;51.460;7.158;2024-02-26T02:31:19;98723.00;;;9.90
13570;BMP180;6856;51.460;7.158;2024-02-26T02:33:55;98724.00;;;9.90
13570;BMP180;6856;51.460;7.158;2024-02-26T02:36:31;98728.00;;;9.90
13570;BMP180;6856;51.460;7.158;2024-02-26T02:39:07;98726.00;;;9.90
13570;BMP180;6856;51.460;7.158;2024-02-26T02:41:41;98729.00;;;9.90
13570;BMP180;6856;51.460;7.158;2024-02-26T02:44:15;98724.00;;;9.90
13570;BMP180;6856;51.460;7.158;2024-02-26T02:46:49;98729.00;;;9.80
13570;BMP180;6856;51.460;7.158;2024-02-26T02:49:25;98728.00;;;9.90
13570;BMP180;6856;51.460;7.158;2024-02-26T02:52:01;98728.00;;;9.90
13570;BMP180;6856;51.460;7.158;2024-02-26T02:54:34;98726.00;;;9.90
13570;BMP180;6856;51.460;7.158;2024-02-26T02:57:09;98727.00;;;9.90
13570;BMP180;6856;51.460;7.158;2024-02-26T02:59:44;98730.00;;;9.90
13570;BMP180;6856;51.460;7.158;2024-02-26T03:02:19;98727.00;;;9.80
13570;BMP180;6856;51.460;7.158;2024-02-26T03:04:53;98732.00;;;9.80
13570;BMP180;6856;51.460;7.158;2024-02-26T03:07:30;98731.00;;;9.80
13570;BMP180;6856;51.460;7.158;2024-02-26T03:10:04;98733.00;;;9.80
13570;BMP180;6856;51.460;7.158;2024-02-26T03:12:39;98739.00;;;9.80
13570;BMP180;6856;51.460;7.158;2024-02-26T03:15:13;98742.00;;;9.80
13570;BMP180;6856;51.460;7.158;2024-02-26T03:17:47;98747.00;;;9.80
13570;BMP180;6856;51.460;7.158;2024-02-26T03:20:21;98746.00;;;9.80
13570;BMP180;6856;51.460;7.158;2024-02-26T03:22:57;98745.00;;;9.80
13570;BMP180;6856;51.460;7.158;2024-02-26T03:25:30;98758.00;;;9.80
13570;BMP180;6856;51.460;7.158;2024-02-26T03:28:05;98753.00;;;9.80
13570;BMP180;6856;51.460;7.158;2024-02-26T03:30:39;98751.00;;;9.80
13570;BMP180;6856;51.460;7.158;2024-02-26T03:33:13;98741.00;;;9.80
13570;BMP180;6856;51.460;7.158;2024-02-26T03:35:48;98747.00;;;9.70
13570;BMP180;6856;51.460;7.158;2024-02-26T03:38:23;98749.00;;;9.70
13570;BMP180;6856;51.460;7.158;2024-02-26T03:40:57;98737.00;;;9.70
13570;BMP180;6856;51.460;7.158;2024-02-26T03:43:32;98748.00;;;9.70
13570;BMP180;6856;51.460;7.158;2024-02-26T03:46:08;98739.00;;;9.70
13570;BMP180;6856;51.460;7.158;2024-02-26T03:48:44;98733.00;;;9.70
13570;BMP180;6856;51.460;7.158;2024-02-26T03:51:18;98730.00;;;9.70
13570;BMP180;6856;51.460;7.158;2024-02-26T03:53:53;98728.00;;;9.70
13570;BMP180;6856;51.460;7.158;2024-02-26T03:56:27;98739.00;;;9.70
13570;BMP180;6856;51.460;7.158;2024-02-26T03:59:01;98742.00;;;9.70
13570;BMP180;6856;51.460;7.158;2024-02-26T04:01:35;98727.00;;;9.70
13570;BMP180;6856;51.460;7.158;2024-02-26T04:04:09;98728.00;;;9.70
13570;BMP180;6856;51.460;7.158;2024-02-26T04:06:44;98728.00;;;9.70
13570;BMP180;6856;51.460;7.158;2024-02-26T04:09:20;98729.00;;;9.70
13570;BMP180;6856;51.460;7.158;2024-02-26T04:11:54;98732.00;;;9.70
13570;BMP180;6856;51.460;7.158;2024-02-26T04:14:29;98728.00;;;9.70
13570;BMP180;6856;51.460;7.158;2024-02-26T04:17:03;98739.00;;;9.70
13570;BMP180;6856;51.460;7.158;2024-02-26T04:19:37;98720.00;;;9.60
13570;BMP180;6856;51.460;7.158;2024-02-26T04:22:11;98741.00;;;9.60
13570;BMP180;6856;51.460;7.158;2024-02-26T04:24:46;98711.00;;;9.60
13570;BMP180;6856;51.460;7.158;2024-02-26T04:27:20;98737.00;;;9.60
13570;BMP180;6856;51.460;7.158;2024-02-26T04:29:56;98731.00;;;9.60
13570;BMP180;6856;51.460;7.158;2024-02-26T04:32:32;98746.00;;;9.60
13570;BMP180;6856;51.460;7.158;2024-02-26T04:35:07;98742.00;;;9.70
13570;BMP180;6856;51.460;7.158;2024-02-26T04:37:41;98747.00;;;9.70
13570;BMP180;6856;51.460;7.158;2024-02-26T04:40:16;98744.00;;;9.70
13570;BMP180;6856;51.460;7.158;2024-02-26T04:42:53;98736.00;;;9.70
13570;BMP180;6856;51.460;7.158;2024-02-26T04:45:27;98745.00;;;9.70
13570;BMP180;6856;51.460;7.158;2024-02-26T04:48:01;98755.00;;;9.70
13570;BMP180;6856;51.460;7.158;2024-02-26T04:50:35;98754.00;;;9.70
13570;BMP180;6856;51.460;7.158;2024-02-26T04:53:09;98760.00;;;9.70
13570;BMP180;6856;51.460;7.158;2024-02-26T04:55:44;98770.00;;;9.60
13570;BMP180;6856;51.460;7.158;2024-02-26T04:58:18;98764.00;;;9.60
13570;BMP180;6856;51.460;7.158;2024-02-26T05:00:55;98769.00;;;9.60
13570;BMP180;6856;51.460;7.158;2024-02-26T05:03:29;98769.00;;;9.60
13570;BMP180;6856;51.460;7.158;2024-02-26T05:06:07;98771.00;;;9.60
13570;BMP180;6856;51.460;7.158;2024-02-26T05:08:41;98772.00;;;9.60
13570;BMP180;6856;51.460;7.158;2024-02-26T05:11:18;98778.00;;;9.60
13570;BMP180;6856;51.460;7.158;2024-02-26T05:13:51;98777.00;;;9.60
13570;BMP180;6856;51.460;7.158;2024-02-26T05:16:25;98782.00;;;9.60
13570;BMP180;6856;51.460;7.158;2024-02-26T05:19:00;98795.00;;;9.50
13570;BMP180;6856;51.460;7.158;2024-02-26T05:21:35;98793.00;;;9.50
13570;BMP180;6856;51.460;7.158;2024-02-26T05:24:09;98797.00;;;9.60
13570;BMP180;6856;51.460;7.158;2024-02-26T05:26:45;98795.00;;;9.50
13570;BMP180;6856;51.460;7.158;2024-02-26T05:29:19;98785.00;;;9.60
13570;BMP180;6856;51.460;7.158;2024-02-26T05:31:53;98794.00;;;9.60
13570;BMP180;6856;51.460;7.158;2024-02-26T05:34:29;98796.00;;;9.60
13570;BMP180;6856;51.460;7.158;2024-02-26T05:37:04;98799.00;;;9.50
13570;BMP180;6856;51.460;7.158;2024-02-26T05:39:38;98799.00;;;9.60
13570;BMP180;6856;51.460;7.158;2024-02-26T05:42:14;98799.00;;;9.50
13570;BMP180;6856;51.460;7.158;2024-02-26T05:44:48;98796.00;;;9.50
13570;BMP180;6856;51.460;7.158;2024-02-26T05:47:22;98787.00;;;9.50
13570;BMP180;6856;51.460;7.158;2024-02-26T05:49:55;98786.00;;;9.50
13570;BMP180;6856;51.460;7.158;2024-02-26T05:52:31;98806.00;;;9.50
13570;BMP180;6856;51.460;7.158;2024-02-26T05:55:06;98806.00;;;9.40
13570;BMP180;6856;51.460;7.158;2024-02-26T05:57:41;98809.00;;;9.40
13570;BMP180;6856;51.460;7.158;2024-02-26T06:00:15;98804.00;;;9.40
13570;BMP180;6856;51.460;7.158;2024-02-26T06:02:49;98806.00;;;9.40
13570;BMP180;6856;51.460;7.158;2024-02-26T06:05:23;98817.00;;;9.40
13570;BMP180;6856;51.460;7.158;2024-02-26T06:07:57;98811.00;;;9.40
13570;BMP180;6856;51.460;7.158;2024-02-26T06:10:31;98815.00;;;9.30
13570;BMP180;6856;51.460;7.158;2024-02-26T06:13:07;98820.00;;;9.30
13570;BMP180;6856;51.460;7.158;2024-02-26T06:15:41;98837.00;;;9.20
13570;BMP180;6856;51.460;7.158;2024-02-26T06:18:15;98827.00;;;9.30
13570;BMP180;6856;51.460;7.158;2024-02-26T06:20:50;98825.00;;;9.30
13570;BMP180;6856;51.460;7.158;2024-02-26T06:23:25;98829.00;;;9.30
13570;BMP180;6856;51.460;7.158;2024-02-26T06:25:59;98832.00;;;9.30
13570;BMP180;6856;51.460;7.158;2024-02-26T06:28:34;98832.00;;;9.20
13570;BMP180;6856;51.460;7.158;2024-02-26T06:31:08;98845.00;;;9.20
13570;BMP180;6856;51.460;7.158;2024-02-26T06:33:42;98835.00;;;9.20
13570;BMP180;6856;51.460;7.158;2024-02-26T06:36:16;98849.00;;;9.20
13570;BMP180;6856;51.460;7.158;2024-02-26T06:38:51;98838.00;;;9.20
13570;BMP180;6856;51.460;7.158;2024-02-26T06:41:26;98843.00;;;9.20
13570;BMP180;6856;51.460;7.158;2024-02-26T06:44:04;98831.00;;;9.10
13570;BMP180;6856;51.460;7.158;2024-02-26T06:46:37;98844.00;;;9.10
13570;BMP180;6856;51.460;7.158;2024-02-26T06:49:12;98835.00;;;9.20
13570;BMP180;6856;51.460;7.158;2024-02-26T06:51:45;98840.00;;;9.20
13570;BMP180;6856;51.460;7.158;2024-02-26T06:54:20;98838.00;;;9.20
13570;BMP180;6856;51.460;7.158;2024-02-26T06:56:55;98837.00;;;9.20
13570;BMP180;6856;51.460;7.158;2024-02-26T06:59:30;98843.00;;;9.10
13570;BMP180;6856;51.460;7.158;2024-02-26T07:02:05;98817.00;;;9.10
13570;BMP180;6856;51.460;7.158;2024-02-26T07:04:39;98845.00;;;9.10
13570;BMP180;6856;51.460;7.158;2024-02-26T07:07:14;98846.00;;;9.10
13570;BMP180;6856;51.460;7.158;2024-02-26T07:09:52;98854.00;;;9.10
13570;BMP180;6856;51.460;7.158;2024-02-26T07:12:27;98835.00;;;9.10
13570;BMP180;6856;51.460;7.158;2024-02-26T07:15:02;98865.00;;;9.10
13570;BMP180;6856;51.460;7.158;2024-02-26T07:17:36;98854.00;;;9.10
13570;BMP180;6856;51.460;7.158;2024-02-26T07:20:16;98869.00;;;9.10
13570;BMP180;6856;51.460;7.158;2024-02-26T07:22:51;98868.00;;;9.10
13570;BMP180;6856;51.460;7.158;2024-02-26T07:25:24;98880.00;;;9.10
13570;BMP180;6856;51.460;7.158;2024-02-26T07:27:59;98873.00;;;9.10
13570;BMP180;6856;51.460;7.158;2024-02-26T07:30:34;98882.00;;;9.10
13570;BMP180;6856;51.460;7.158;2024-02-26T07:33:08;98880.00;;;9.10
13570;BMP180;6856;51.460;7.158;2024-02-26T07:35:42;98884.00;;;9.10
13570;BMP180;6856;51.460;7.158;2024-02-26T07:38:15;98892.00;;;9.10
13570;BMP180;6856;51.460;7.158;2024-02-26T07:41:04;98879.00;;;9.20
13570;BMP180;6856;51.460;7.158;2024-02-26T07:43:40;98884.00;;;9.20
13570;BMP180;6856;51.460;7.158;2024-02-26T07:46:17;98885.00;;;9.20
13570;BMP180;6856;51.460;7.158;2024-02-26T07:48:50;98892.00;;;9.20
13570;BMP180;6856;51.460;7.158;2024-02-26T07:51:25;98892.00;;;9.20
13570;BMP180;6856;51.460;7.158;2024-02-26T07:53:58;98900.00;;;9.30
13570;BMP180;6856;51.460;7.158;2024-02-26T07:56:33;98911.00;;;9.30
13570;BMP180;6856;51.460;7.158;2024-02-26T07:59:06;98914.00;;;9.30
13570;BMP180;6856;51.460;7.158;2024-02-26T08:01:49;98914.00;;;9.30
13570;BMP180;6856;51.460;7.158;2024-02-26T08:04:29;98914.00;;;9.30
13570;BMP180;6856;51.460;7.158;2024-02-26T08:07:04;98916.00;;;9.30
13570;BMP180;6856;51.460;7.158;2024-02-26T08:09:38;98917.00;;;9.30
13570;BMP180;6856;51.460;7.158;2024-02-26T08:12:13;98921.00;;;9.30
13570;BMP180;6856;51.460;7.158;2024-02-26T08:14:47;98923.00;;;9.30
13570;BMP180;6856;51.460;7.158;2024-02-26T08:17:24;98925.00;;;9.30
13570;BMP180;6856;51.460;7.158;2024-02-26T08:19:59;98920.00;;;9.30
13570;BMP180;6856;51.460;7.158;2024-02-26T08:22:33;98922.00;;;9.30
13570;BMP180;6856;51.460;7.158;2024-02-26T08:25:09;98925.00;;;9.30
13570;BMP180;6856;51.460;7.158;2024-02-26T08:27:43;98929.00;;;9.30
13570;BMP180;6856;51.460;7.158;2024-02-26T08:30:19;98927.00;;;9.30
13570;BMP180;6856;51.460;7.158;2024-02-26T08:32:54;98930.00;;;9.30
13570;BMP180;6856;51.460;7.158;2024-02-26T08:35:29;98932.00;;;9.40
13570;BMP180;6856;51.460;7.158;2024-02-26T08:38:03;98926.00;;;9.40
13570;BMP180;6856;51.460;7.158;2024-02-26T08:40:37;98929.00;;;9.40
13570;BMP180;6856;51.460;7.158;2024-02-26T08:43:11;98922.00;;;9.40
13570;BMP180;6856;51.460;7.158;2024-02-26T08:45:46;98925.00;;;9.40
13570;BMP180;6856;51.460;7.158;2024-02-26T08:48:23;98933.00;;;9.40
13570;BMP180;6856;51.460;7.158;2024-02-26T08:50:58;98929.00;;;9.40
13570;BMP180;6856;51.460;7.158;2024-02-26T08:53:32;98931.00;;;9.40
13570;BMP180;6856;51.460;7.158;2024-02-26T08:56:14;98928.00;;;9.40
13570;BMP180;6856;51.460;7.158;2024-02-26T08:58:50;98933.00;;;9.40
13570;BMP180;6856;51.460;7.158;2024-02-26T09:01:26;98940.00;;;9.40
13570;BMP180;6856;51.460;7.158;2024-02-26T09:04:01;98937.00;;;9.40
13570;BMP180;6856;51.460;7.158;2024-02-26T09:06:38;98936.00;;;9.40
13570;BMP180;6856;51.460;7.158;2024-02-26T09:09:12;98935.00;;;9.50
13570;BMP180;6856;51.460;7.158;2024-02-26T09:11:46;98942.00;;;9.50
13570;BMP180;6856;51.460;7.158;2024-02-26T09:14:21;98950.00;;;9.50
13570;BMP180;6856;51.460;7.158;2024-02-26T09:17:03;98956.00;;;9.50
13570;BMP180;6856;51.460;7.158;2024-02-26T09:19:39;98964.00;;;9.50
13570;BMP180;6856;51.460;7.158;2024-02-26T09:22:15;98963.00;;;9.50
13570;BMP180;6856;51.460;7.158;2024-02-26T09:24:50;98970.00;;;9.50
13570;BMP180;6856;51.460;7.158;2024-02-26T09:27:25;98972.00;;;9.50
13570;BMP180;6856;51.460;7.158;2024-02-26T09:30:01;98970.00;;;9.50
13570;BMP180;6856;51.460;7.158;2024-02-26T09:32:35;98970.00;;;9.60
13570;BMP180;6856;51.460;7.158;2024-02-26T09:35:11;98968.00;;;9.60
13570;BMP180;6856;51.460;7.158;2024-02-26T09:37:47;98970.00;;;9.60
13570;BMP180;6856;51.460;7.158;2024-02-26T09:40:22;98976.00;;;9.60
13570;BMP180;6856;51.460;7.158;2024-02-26T09:43:00;98979.00;;;9.60
13570;BMP180;6856;51.460;7.158;2024-02-26T09:45:36;98988.00;;;9.60
13570;BMP180;6856;51.460;7.158;2024-02-26T09:48:12;98992.00;;;9.60
13570;BMP180;6856;51.460;7.158;2024-02-26T09:50:49;98983.00;;;9.70
13570;BMP180;6856;51.460;7.158;2024-02-26T09:53:23;98980.00;;;9.70
13570;BMP180;6856;51.460;7.158;2024-02-26T09:55:58;98988.00;;;9.70
13570;BMP180;6856;51.460;7.158;2024-02-26T09:58:34;98990.00;;;9.70
13570;BMP180;6856;51.460;7.158;2024-02-26T10:01:16;98990.00;;;9.80
13570;BMP180;6856;51.460;7.158;2024-02-26T10:03:56;98989.00;;;9.80
13570;BMP180;6856;51.460;7.158;2024-02-26T10:06:35;98997.00;;;9.80
13570;BMP180;6856;51.460;7.158;2024-02-26T10:09:11;98984.00;;;9.80
13570;BMP180;6856;51.460;7.158;2024-02-26T10:11:47;99000.00;;;9.80
13570;BMP180;6856;51.460;7.158;2024-02-26T10:14:23;99004.00;;;9.90
13570;BMP180;6856;51.460;7.158;2024-02-26T10:16:59;99004.00;;;9.90
13570;BMP180;6856;51.460;7.158;2024-02-26T10:19:34;99013.00;;;9.90
13570;BMP180;6856;51.460;7.158;2024-02-26T10:22:12;99013.00;;;9.90
13570;BMP180;6856;51.460;7.158;2024-02-26T10:24:47;99014.00;;;9.90
13570;BMP180;6856;51.460;7.158;2024-02-26T10:27:21;99023.00;;;10.00
13570;BMP180;6856;51.460;7.158;2024-02-26T10:29:57;99027.00;;;10.00
13570;BMP180;6856;51.460;7.158;2024-02-26T10:32:32;99031.00;;;10.00
13570;BMP180;6856;51.460;7.158;2024-02-26T10:35:09;99048.00;;;10.00
13570;BMP180;6856;51.460;7.158;2024-02-26T10:37:46;99060.00;;;10.10
13570;BMP180;6856;51.460;7.158;2024-02-26T10:40:20;99062.00;;;10.10
13570;BMP180;6856;51.460;7.158;2024-02-26T10:42:54;99064.00;;;10.10
13570;BMP180;6856;51.460;7.158;2024-02-26T10:45:28;99065.00;;;10.20
13570;BMP180;6856;51.460;7.158;2024-02-26T10:48:12;99066.00;;;10.20
13570;BMP180;6856;51.460;7.158;2024-02-26T10:50:47;99074.00;;;10.20
13570;BMP180;6856;51.460;7.158;2024-02-26T10:53:28;99066.00;;;10.20
13570;BMP180;6856;51.460;7.158;2024-02-26T10:56:05;99066.00;;;10.20
13570;BMP180;6856;51.460;7.158;2024-02-26T10:58:40;99060.00;;;10.30
13570;BMP180;6856;51.460;7.158;2024-02-26T11:01:15;99061.00;;;10.30
13570;BMP180;6856;51.460;7.158;2024-02-26T11:03:52;99036.00;;;10.30
13570;BMP180;6856;51.460;7.158;2024-02-26T11:06:27;99064.00;;;10.40
13570;BMP180;6856;51.460;7.158;2024-02-26T11:09:05;99070.00;;;10.40
13570;BMP180;6856;51.460;7.158;2024-02-26T11:11:40;99078.00;;;10.40
13570;BMP180;6856;51.460;7.158;2024-02-26T11:14:15;99078.00;;;10.50
13570;BMP180;6856;51.460;7.158;2024-02-26T11:16:51;99044.00;;;10.50
13570;BMP180;6856;51.460;7.158;2024-02-26T11:19:26;99084.00;;;10.50
13570;BMP180;6856;51.460;7.158;2024-02-26T11:22:02;99081.00;;;10.60
13570;BMP180;6856;51.460;7.158;2024-02-26T11:24:55;99089.00;;;10.60
13570;BMP180;6856;51.460;7.158;2024-02-26T11:27:33;99089.00;;;10.60
13570;BMP180;6856;51.460;7.158;2024-02-26T11:30:11;99095.00;;;10.50
13570;BMP180;6856;51.460;7.158;2024-02-26T11:32:46;99096.00;;;10.70
13570;BMP180;6856;51.460;7.158;2024-02-26T11:35:22;99092.00;;;10.70
13570;BMP180;6856;51.460;7.158;2024-02-26T11:37:59;99091.00;;;10.70
13570;BMP180;6856;51.460;7.158;2024-02-26T11:40:38;99096.00;;;10.80
13570;BMP180;6856;51.460;7.158;2024-02-26T11:43:13;99089.00;;;10.80
13570;BMP180;6856;51.460;7.158;2024-02-26T11:45:52;99082.00;;;10.80
13570;BMP180;6856;51.460;7.158;2024-02-26T11:48:32;99088.00;;;10.80
13570;BMP180;6856;51.460;7.158;2024-02-26T11:51:09;99089.00;;;10.80
13570;BMP180;6856;51.460;7.158;2024-02-26T11:53:46;99089.00;;;10.90
13570;BMP180;6856;51.460;7.158;2024-02-26T11:56:26;99083.00;;;10.90
13570;BMP180;6856;51.460;7.158;2024-02-26T11:59:08;99090.00;;;10.90
13570;BMP180;6856;51.460;7.158;2024-02-26T12:01:45;99091.00;;;11.00
13570;BMP180;6856;51.460;7.158;2024-02-26T12:04:24;99100.00;;;11.10
13570;BMP180;6856;51.460;7.158;2024-02-26T12:07:02;99076.00;;;11.10
13570;BMP180;6856;51.460;7.158;2024-02-26T12:09:39;99103.00;;;11.10
13570;BMP180;6856;51.460;7.158;2024-02-26T12:12:18;99097.00;;;11.20
13570;BMP180;6856;51.460;7.158;2024-02-26T12:14:56;99112.00;;;11.20
13570;BMP180;6856;51.460;7.158;2024-02-26T12:17:32;99110.00;;;11.20
13570;BMP180;6856;51.460;7.158;2024-02-26T12:20:09;99100.00;;;11.30
13570;BMP180;6856;51.460;7.158;2024-02-26T12:22:46;99102.00;;;11.30
13570;BMP180;6856;51.460;7.158;2024-02-26T12:25:25;99112.00;;;11.30
13570;BMP180;6856;51.460;7.158;2024-02-26T12:28:02;99117.00;;;11.30
13570;BMP180;6856;51.460;7.158;2024-02-26T12:30:35;99110.00;;;11.40
13570;BMP180;6856;51.460;7.158;2024-02-26T12:33:11;99126.00;;;11.40
13570;BMP180;6856;51.460;7.158;2024-02-26T12:35:45;99128.00;;;11.50
13570;BMP180;6856;51.460;7.158;2024-02-26T12:38:21;99123.00;;;11.50
13570;BMP180;6856;51.460;7.158;2024-02-26T12:40:56;99133.00;;;11.50
13570;BMP180;6856;51.460;7.158;2024-02-26T12:43:31;99129.00;;;11.50
13570;BMP180;6856;51.460;7.158;2024-02-26T12:46:06;99124.00;;;11.50
13570;BMP180;6856;51.460;7.158;2024-02-26T12:48:42;99127.00;;;11.50
13570;BMP180;6856;51.460;7.158;2024-02-26T12:51:17;99114.00;;;11.50
13570;BMP180;6856;51.460;7.158;2024-02-26T12:53:52;99123.00;;;11.50
13570;BMP180;6856;51.460;7.158;2024-02-26T12:56:29;99139.00;;;11.40
13570;BMP180;6856;51.460;7.158;2024-02-26T12:59:06;99144.00;;;11.40
13570;BMP180;6856;51.460;7.158;2024-02-26T13:01:41;99145.00;;;11.40
13570;BMP180;6856;51.460;7.158;2024-02-26T13:04:15;99137.00;;;11.40
13570;BMP180;6856;51.460;7.158;2024-02-26T13:06:50;99151.00;;;11.40
13570;BMP180;6856;51.460;7.158;2024-02-26T13:09:23;99163.00;;;11.40
13570;BMP180;6856;51.460;7.158;2024-02-26T13:11:59;99158.00;;;11.40
13570;BMP180;6856;51.460;7.158;2024-02-26T13:14:36;99176.00;;;11.50
13570;BMP180;6856;51.460;7.158;2024-02-26T13:17:10;99179.00;;;11.40
13570;BMP180;6856;51.460;7.158;2024-02-26T13:19:50;99174.00;;;11.40
13570;BMP180;6856;51.460;7.158;2024-02-26T13:22:24;99183.00;;;11.40
13570;BMP180;6856;51.460;7.158;2024-02-26T13:25:02;99188.00;;;11.40
13570;BMP180;6856;51.460;7.158;2024-02-26T13:27:37;99190.00;;;11.40
13570;BMP180;6856;51.460;7.158;2024-02-26T13:30:14;99197.00;;;11.50
13570;BMP180;6856;51.460;7.158;2024-02-26T13:32:48;99202.00;;;11.50
13570;BMP180;6856;51.460;7.158;2024-02-26T13:35:22;99205.00;;;11.50
13570;BMP180;6856;51.460;7.158;2024-02-26T13:38:02;99209.00;;;11.50
13570;BMP180;6856;51.460;7.158;2024-02-26T13:40:44;99201.00;;;11.50
13570;BMP180;6856;51.460;7.158;2024-02-26T13:43:20;99212.00;;;11.50
13570;BMP180;6856;51.460;7.158;2024-02-26T13:45:55;99214.00;;;11.50
13570;BMP180;6856;51.460;7.158;2024-02-26T13:48:29;99211.00;;;11.50
13570;BMP180;6856;51.460;7.158;2024-02-26T13:51:06;99218.00;;;11.50
13570;BMP180;6856;51.460;7.158;2024-02-26T13:53:39;99203.00;;;11.50
13570;BMP180;6856;51.460;7.158;2024-02-26T13:56:15;99216.00;;;11.50
13570;BMP180;6856;51.460;7.158;2024-02-26T13:58:49;99213.00;;;11.50
13570;BMP180;6856;51.460;7.158;2024-02-26T14:01:25;99213.00;;;11.50
13570;BMP180;6856;51.460;7.158;2024-02-26T14:03:59;99207.00;;;11.60
13570;BMP180;6856;51.460;7.158;2024-02-26T14:06:35;99216.00;;;11.50
13570;BMP180;6856;51.460;7.158;2024-02-26T14:09:09;99213.00;;;11.60
13570;BMP180;6856;51.460;7.158;2024-02-26T14:11:43;99216.00;;;11.60
13570;BMP180;6856;51.460;7.158;2024-02-26T14:14:17;99228.00;;;11.60
13570;BMP180;6856;51.460;7.158;2024-02-26T14:16:53;99224.00;;;11.60
13570;BMP180;6856;51.460;7.158;2024-02-26T14:19:27;99231.00;;;11.60
13570;BMP180;6856;51.460;7.158;2024-02-26T14:22:01;99246.00;;;11.60
13570;BMP180;6856;51.460;7.158;2024-02-26T14:24:35;99246.00;;;11.60
13570;BMP180;6856;51.460;7.158;2024-02-26T14:27:12;99254.00;;;11.60
13570;BMP180;6856;51.460;7.158;2024-02-26T14:29:49;99249.00;;;11.60
13570;BMP180;6856;51.460;7.158;2024-02-26T14:32:24;99230.00;;;11.60
13570;BMP180;6856;51.460;7.158;2024-02-26T14:34:58;99253.00;;;11.70
13570;BMP180;6856;51.460;7.158;2024-02-26T14:37:31;99253.00;;;11.70
13570;BMP180;6856;51.460;7.158;2024-02-26T14:40:08;99263.00;;;11.70
13570;BMP180;6856;51.460;7.158;2024-02-26T14:42:42;99256.00;;;11.70
13570;BMP180;6856;51.460;7.158;2024-02-26T14:45:16;99272.00;;;11.70
13570;BMP180;6856;51.460;7.158;2024-02-26T14:47:54;99278.00;;;11.70
13570;BMP180;6856;51.460;7.158;2024-02-26T14:50:28;99272.00;;;11.70
13570;BMP180;6856;51.460;7.158;2024-02-26T14:53:04;99280.00;;;11.70
13570;BMP180;6856;51.460;7.158;2024-02-26T14:55:38;99269.00;;;11.70
13570;BMP180;6856;51.460;7.158;2024-02-26T14:58:13;99277.00;;;11.70
13570;BMP180;6856;51.460;7.158;2024-02-26T15:00:47;99281.00;;;11.70
13570;BMP180;6856;51.460;7.158;2024-02-26T15:03:28;99281.00;;;11.70
13570;BMP180;6856;51.460;7.158;2024-02-26T15:06:03;99290.00;;;11.70
13570;BMP180;6856;51.460;7.158;2024-02-26T15:08:37;99290.00;;;11.70
13570;BMP180;6856;51.460;7.158;2024-02-26T15:11:11;99294.00;;;11.70
13570;BMP180;6856;51.460;7.158;2024-02-26T15:13:45;99294.00;;;11.70
13570;BMP180;6856;51.460;7.158;2024-02-26T15:16:20;99304.00;;;11.70